sensor_id;sensor_type;location;lat;lon;timestamp;temperature;humidity
60495;DHT22;46342;49.046;11.920;2023-05-10T00:00:11;17.30;43.60
60495;DHT22;46342;49.046;11.920;2023-05-10T00:02:37;17.30;43.70
60495;DHT22;46342;49.046;11.920;2023-05-10T00:05:04;17.30;43.80
60495;DHT22;46342;49.046;11.920;2023-05-10T00:07:30;17.30;43.90
60495;DHT22;46342;49.046;11.920;2023-05-10T00:09:55;17.20;43.80
60495;DHT22;46342;49.046;11.920;2023-05-10T00:12:21;17.20;43.80
60495;DHT22;46342;49.046;11.920;2023-05-10T00:14:47;17.20;43.80
60495;DHT22;46342;49.046;11.920;2023-05-10T00:17:12;17.20;43.90
60495;DHT22;46342;49.046;11.920;2023-05-10T00:19:38;17.20;43.90
60495;DHT22;46342;49.046;11.920;2023-05-10T00:22:03;17.20;44.10
60495;DHT22;46342;49.046;11.920;2023-05-10T00:24:29;17.20;44.10
60495;DHT22;46342;49.046;11.920;2023-05-10T00:26:54;17.20;44.20
60495;DHT22;46342;49.046;11.920;2023-05-10T00:29:20;17.20;44.20
60495;DHT22;46342;49.046;11.920;2023-05-10T00:31:46;17.10;44.20
60495;DHT22;46342;49.046;11.920;2023-05-10T00:34:11;17.10;44.30
60495;DHT22;46342;49.046;11.920;2023-05-10T00:36:37;17.10;44.40
60495;DHT22;46342;49.046;11.920;2023-05-10T00:39:03;17.10;44.40
60495;DHT22;46342;49.046;11.920;2023-05-10T00:41:29;17.10;44.50
60495;DHT22;46342;49.046;11.920;2023-05-10T00:43:57;17.10;44.60
60495;DHT22;46342;49.046;11.920;2023-05-10T00:46:23;17.00;44.60
60495;DHT22;46342;49.046;11.920;2023-05-10T00:48:49;17.00;44.70
60495;DHT22;46342;49.046;11.920;2023-05-10T00:51:15;17.00;44.80
60495;DHT22;46342;49.046;11.920;2023-05-10T00:53:40;17.00;44.80
60495;DHT22;46342;49.046;11.920;2023-05-10T00:56:06;17.00;44.80
60495;DHT22;46342;49.046;11.920;2023-05-10T00:58:32;17.00;45.00
60495;DHT22;46342;49.046;11.920;2023-05-10T01:00:58;17.00;45.10
60495;DHT22;46342;49.046;11.920;2023-05-10T01:03:25;16.90;45.10
60495;DHT22;46342;49.046;11.920;2023-05-10T01:05:50;17.00;45.30
60495;DHT22;46342;49.046;11.920;2023-05-10T01:08:16;16.90;45.30
60495;DHT22;46342;49.046;11.920;2023-05-10T01:10:42;16.90;45.40
60495;DHT22;46342;49.046;11.920;2023-05-10T01:13:09;16.90;45.60
60495;DHT22;46342;49.046;11.920;2023-05-10T01:15:35;16.90;45.70
60495;DHT22;46342;49.046;11.920;2023-05-10T01:18:02;16.90;45.80
60495;DHT22;46342;49.046;11.920;2023-05-10T01:20:32;16.90;45.80
60495;DHT22;46342;49.046;11.920;2023-05-10T01:34:15;16.80;46.90
60495;DHT22;46342;49.046;11.920;2023-05-10T01:37:25;16.80;46.50
60495;DHT22;46342;49.046;11.920;2023-05-10T01:42:11;16.80;46.70
60495;DHT22;46342;49.046;11.920;2023-05-10T01:47:40;16.70;47.10
60495;DHT22;46342;49.046;11.920;2023-05-10T01:50:15;16.70;46.50
60495;DHT22;46342;49.046;11.920;2023-05-10T01:52:47;16.70;46.90
60495;DHT22;46342;49.046;11.920;2023-05-10T01:55:16;16.70;47.10
60495;DHT22;46342;49.046;11.920;2023-05-10T01:57:44;16.70;46.80
60495;DHT22;46342;49.046;11.920;2023-05-10T02:00:12;16.70;47.00
60495;DHT22;46342;49.046;11.920;2023-05-10T02:02:40;16.70;47.00
60495;DHT22;46342;49.046;11.920;2023-05-10T02:05:08;16.70;47.20
60495;DHT22;46342;49.046;11.920;2023-05-10T02:07:36;16.60;47.10
60495;DHT22;46342;49.046;11.920;2023-05-10T02:10:02;16.70;47.40
60495;DHT22;46342;49.046;11.920;2023-05-10T02:12:30;16.60;47.20
60495;DHT22;46342;49.046;11.920;2023-05-10T02:14:57;16.60;47.40
60495;DHT22;46342;49.046;11.920;2023-05-10T02:17:24;16.60;47.40
60495;DHT22;46342;49.046;11.920;2023-05-10T02:19:51;16.70;48.30
60495;DHT22;46342;49.046;11.920;2023-05-10T02:22:18;16.60;47.40
60495;DHT22;46342;49.046;11.920;2023-05-10T02:24:44;16.60;47.50
60495;DHT22;46342;49.046;11.920;2023-05-10T02:27:11;16.60;47.60
60495;DHT22;46342;49.046;11.920;2023-05-10T02:29:38;16.60;47.80
60495;DHT22;46342;49.046;11.920;2023-05-10T02:32:04;16.50;47.70
60495;DHT22;46342;49.046;11.920;2023-05-10T02:34:31;16.50;47.70
60495;DHT22;46342;49.046;11.920;2023-05-10T02:36:57;16.50;47.90
60495;DHT22;46342;49.046;11.920;2023-05-10T02:39:25;16.50;48.10
60495;DHT22;46342;49.046;11.920;2023-05-10T02:41:52;16.50;48.10
60495;DHT22;46342;49.046;11.920;2023-05-10T02:44:19;16.40;48.20
60495;DHT22;46342;49.046;11.920;2023-05-10T02:46:45;16.40;48.30
60495;DHT22;46342;49.046;11.920;2023-05-10T02:49:12;16.40;48.50
60495;DHT22;46342;49.046;11.920;2023-05-10T02:51:41;16.40;48.60
60495;DHT22;46342;49.046;11.920;2023-05-10T02:54:15;16.40;49.20
60495;DHT22;46342;49.046;11.920;2023-05-10T02:56:48;16.40;49.50
60495;DHT22;46342;49.046;11.920;2023-05-10T02:59:15;16.40;49.50
60495;DHT22;46342;49.046;11.920;2023-05-10T03:01:41;16.40;49.00
60495;DHT22;46342;49.046;11.920;2023-05-10T03:04:07;16.40;49.20
60495;DHT22;46342;49.046;11.920;2023-05-10T03:06:33;16.30;49.30
60495;DHT22;46342;49.046;11.920;2023-05-10T03:08:58;16.30;49.40
60495;DHT22;46342;49.046;11.920;2023-05-10T03:19:53;16.30;52.00
60495;DHT22;46342;49.046;11.920;2023-05-10T03:22:31;16.30;50.30
60495;DHT22;46342;49.046;11.920;2023-05-10T03:24:58;16.30;51.10
60495;DHT22;46342;49.046;11.920;2023-05-10T03:27:27;16.20;49.90
60495;DHT22;46342;49.046;11.920;2023-05-10T03:29:54;16.20;50.10
60495;DHT22;46342;49.046;11.920;2023-05-10T03:32:21;16.20;50.10
60495;DHT22;46342;49.046;11.920;2023-05-10T03:34:47;16.20;50.20
60495;DHT22;46342;49.046;11.920;2023-05-10T03:37:12;16.20;50.30
60495;DHT22;46342;49.046;11.920;2023-05-10T03:39:38;16.10;50.30
60495;DHT22;46342;49.046;11.920;2023-05-10T03:42:04;16.10;50.40
60495;DHT22;46342;49.046;11.920;2023-05-10T03:44:29;16.10;50.40
60495;DHT22;46342;49.046;11.920;2023-05-10T03:46:55;16.10;50.50
60495;DHT22;46342;49.046;11.920;2023-05-10T03:49:22;16.10;50.70
60495;DHT22;46342;49.046;11.920;2023-05-10T03:51:48;16.10;50.80
60495;DHT22;46342;49.046;11.920;2023-05-10T03:54:13;16.00;50.90
60495;DHT22;46342;49.046;11.920;2023-05-10T03:56:39;16.10;51.00
60495;DHT22;46342;49.046;11.920;2023-05-10T03:59:04;16.00;51.00
60495;DHT22;46342;49.046;11.920;2023-05-10T04:01:33;16.00;51.00
60495;DHT22;46342;49.046;11.920;2023-05-10T04:03:58;16.10;52.30
60495;DHT22;46342;49.046;11.920;2023-05-10T04:06:24;16.00;50.70
60495;DHT22;46342;49.046;11.920;2023-05-10T04:08:50;15.90;50.80
60495;DHT22;46342;49.046;11.920;2023-05-10T04:11:15;15.90;50.80
60495;DHT22;46342;49.046;11.920;2023-05-10T04:13:41;15.90;50.80
60495;DHT22;46342;49.046;11.920;2023-05-10T04:16:06;15.90;51.00
60495;DHT22;46342;49.046;11.920;2023-05-10T04:18:32;15.90;51.10
60495;DHT22;46342;49.046;11.920;2023-05-10T04:20:58;15.90;51.20
60495;DHT22;46342;49.046;11.920;2023-05-10T04:23:23;15.80;51.20
60495;DHT22;46342;49.046;11.920;2023-05-10T04:25:49;15.80;51.40
60495;DHT22;46342;49.046;11.920;2023-05-10T04:28:14;15.80;51.50
60495;DHT22;46342;49.046;11.920;2023-05-10T04:30:40;15.70;51.60
60495;DHT22;46342;49.046;11.920;2023-05-10T04:33:06;15.80;51.70
60495;DHT22;46342;49.046;11.920;2023-05-10T04:35:31;15.80;51.80
60495;DHT22;46342;49.046;11.920;2023-05-10T04:37:57;15.80;51.80
60495;DHT22;46342;49.046;11.920;2023-05-10T04:40:22;15.70;52.00
60495;DHT22;46342;49.046;11.920;2023-05-10T04:42:48;15.70;52.00
60495;DHT22;46342;49.046;11.920;2023-05-10T04:45:13;15.70;52.00
60495;DHT22;46342;49.046;11.920;2023-05-10T04:47:42;15.70;52.20
60495;DHT22;46342;49.046;11.920;2023-05-10T04:50:08;15.80;53.00
60495;DHT22;46342;49.046;11.920;2023-05-10T04:52:33;15.70;52.60
60495;DHT22;46342;49.046;11.920;2023-05-10T04:54:59;15.70;52.60
60495;DHT22;46342;49.046;11.920;2023-05-10T04:57:25;15.70;52.60
60495;DHT22;46342;49.046;11.920;2023-05-10T04:59:50;15.80;52.70
60495;DHT22;46342;49.046;11.920;2023-05-10T05:02:16;15.70;52.70
60495;DHT22;46342;49.046;11.920;2023-05-10T05:04:42;15.70;52.60
60495;DHT22;46342;49.046;11.920;2023-05-10T05:07:07;15.70;52.70
60495;DHT22;46342;49.046;11.920;2023-05-10T05:09:33;15.70;52.90
60495;DHT22;46342;49.046;11.920;2023-05-10T05:11:58;15.80;53.00
60495;DHT22;46342;49.046;11.920;2023-05-10T05:14:24;15.80;53.00
60495;DHT22;46342;49.046;11.920;2023-05-10T05:16:53;15.80;53.00
60495;DHT22;46342;49.046;11.920;2023-05-10T05:19:19;15.80;53.20
60495;DHT22;46342;49.046;11.920;2023-05-10T05:21:44;15.70;53.10
60495;DHT22;46342;49.046;11.920;2023-05-10T05:24:10;15.70;53.20
60495;DHT22;46342;49.046;11.920;2023-05-10T05:26:37;15.80;53.40
60495;DHT22;46342;49.046;11.920;2023-05-10T05:29:03;15.80;53.50
60495;DHT22;46342;49.046;11.920;2023-05-10T05:31:29;15.70;53.70
60495;DHT22;46342;49.046;11.920;2023-05-10T05:33:54;15.80;53.80
60495;DHT22;46342;49.046;11.920;2023-05-10T05:36:20;15.80;53.90
60495;DHT22;46342;49.046;11.920;2023-05-10T05:38:46;15.80;54.00
60495;DHT22;46342;49.046;11.920;2023-05-10T05:41:11;15.80;54.10
60495;DHT22;46342;49.046;11.920;2023-05-10T05:43:37;15.90;54.20
60495;DHT22;46342;49.046;11.920;2023-05-10T05:46:03;15.90;54.40
60495;DHT22;46342;49.046;11.920;2023-05-10T05:48:30;15.90;54.40
60495;DHT22;46342;49.046;11.920;2023-05-10T05:50:56;15.90;54.70
60495;DHT22;46342;49.046;11.920;2023-05-10T05:53:22;16.00;54.60
60495;DHT22;46342;49.046;11.920;2023-05-10T05:55:55;16.00;54.60
60495;DHT22;46342;49.046;11.920;2023-05-10T05:58:21;16.00;55.70
60495;DHT22;46342;49.046;11.920;2023-05-10T06:00:47;16.00;54.80
60495;DHT22;46342;49.046;11.920;2023-05-10T06:03:13;16.00;54.70
60495;DHT22;46342;49.046;11.920;2023-05-10T06:05:38;16.10;54.90
60495;DHT22;46342;49.046;11.920;2023-05-10T06:08:04;16.10;54.90
60495;DHT22;46342;49.046;11.920;2023-05-10T06:10:29;16.10;55.10
60495;DHT22;46342;49.046;11.920;2023-05-10T06:12:55;16.20;55.20
60495;DHT22;46342;49.046;11.920;2023-05-10T06:15:21;16.20;55.40
60495;DHT22;46342;49.046;11.920;2023-05-10T06:17:47;16.20;55.50
60495;DHT22;46342;49.046;11.920;2023-05-10T06:20:14;16.30;55.70
60495;DHT22;46342;49.046;11.920;2023-05-10T06:22:40;16.30;55.70
60495;DHT22;46342;49.046;11.920;2023-05-10T06:25:06;16.30;55.60
60495;DHT22;46342;49.046;11.920;2023-05-10T06:27:32;16.30;55.80
60495;DHT22;46342;49.046;11.920;2023-05-10T06:29:58;16.40;55.80
60495;DHT22;46342;49.046;11.920;2023-05-10T06:32:23;16.40;56.00
60495;DHT22;46342;49.046;11.920;2023-05-10T06:34:49;16.40;56.00
60495;DHT22;46342;49.046;11.920;2023-05-10T06:37:14;16.40;56.00
60495;DHT22;46342;49.046;11.920;2023-05-10T06:39:40;16.50;56.10
60495;DHT22;46342;49.046;11.920;2023-05-10T06:42:05;16.50;56.10
60495;DHT22;46342;49.046;11.920;2023-05-10T06:44:31;16.50;56.10
60495;DHT22;46342;49.046;11.920;2023-05-10T06:46:56;16.50;56.10
60495;DHT22;46342;49.046;11.920;2023-05-10T06:49:22;16.60;56.10
60495;DHT22;46342;49.046;11.920;2023-05-10T06:51:48;16.60;56.20
60495;DHT22;46342;49.046;11.920;2023-05-10T06:54:13;16.60;56.20
60495;DHT22;46342;49.046;11.920;2023-05-10T06:56:39;16.70;56.50
60495;DHT22;46342;49.046;11.920;2023-05-10T06:59:05;16.60;56.40
60495;DHT22;46342;49.046;11.920;2023-05-10T07:01:30;16.70;56.40
60495;DHT22;46342;49.046;11.920;2023-05-10T07:03:56;16.70;56.30
60495;DHT22;46342;49.046;11.920;2023-05-10T07:06:21;16.70;56.20
60495;DHT22;46342;49.046;11.920;2023-05-10T07:08:47;16.70;56.20
60495;DHT22;46342;49.046;11.920;2023-05-10T07:11:13;16.70;56.20
60495;DHT22;46342;49.046;11.920;2023-05-10T07:13:38;16.70;56.20
60495;DHT22;46342;49.046;11.920;2023-05-10T07:16:06;16.70;56.20
60495;DHT22;46342;49.046;11.920;2023-05-10T07:18:33;16.70;56.30
60495;DHT22;46342;49.046;11.920;2023-05-10T07:20:58;16.70;56.30
60495;DHT22;46342;49.046;11.920;2023-05-10T07:23:24;16.70;56.40
60495;DHT22;46342;49.046;11.920;2023-05-10T07:25:51;16.80;56.60
60495;DHT22;46342;49.046;11.920;2023-05-10T07:28:17;16.80;56.80
60495;DHT22;46342;49.046;11.920;2023-05-10T07:30:43;16.80;57.30
60495;DHT22;46342;49.046;11.920;2023-05-10T07:33:11;16.80;56.60
60495;DHT22;46342;49.046;11.920;2023-05-10T07:35:37;16.90;56.90
60495;DHT22;46342;49.046;11.920;2023-05-10T07:38:03;16.90;56.80
60495;DHT22;46342;49.046;11.920;2023-05-10T07:40:29;16.90;56.80
60495;DHT22;46342;49.046;11.920;2023-05-10T07:42:55;16.90;56.70
60495;DHT22;46342;49.046;11.920;2023-05-10T07:45:20;16.90;56.60
60495;DHT22;46342;49.046;11.920;2023-05-10T07:47:46;17.00;56.60
60495;DHT22;46342;49.046;11.920;2023-05-10T07:50:11;17.00;56.60
60495;DHT22;46342;49.046;11.920;2023-05-10T07:52:37;17.00;56.60
60495;DHT22;46342;49.046;11.920;2023-05-10T07:55:03;17.00;56.60
60495;DHT22;46342;49.046;11.920;2023-05-10T07:57:28;17.10;56.80
60495;DHT22;46342;49.046;11.920;2023-05-10T07:59:54;17.10;56.70
60495;DHT22;46342;49.046;11.920;2023-05-10T08:02:19;17.10;56.70
60495;DHT22;46342;49.046;11.920;2023-05-10T08:04:45;17.10;56.80
60495;DHT22;46342;49.046;11.920;2023-05-10T08:07:11;17.20;56.80
60495;DHT22;46342;49.046;11.920;2023-05-10T08:09:36;17.20;57.50
60495;DHT22;46342;49.046;11.920;2023-05-10T08:12:02;17.30;57.10
60495;DHT22;46342;49.046;11.920;2023-05-10T08:14:29;17.30;57.20
60495;DHT22;46342;49.046;11.920;2023-05-10T08:16:55;17.40;57.50
60495;DHT22;46342;49.046;11.920;2023-05-10T08:19:20;17.40;57.20
60495;DHT22;46342;49.046;11.920;2023-05-10T08:21:47;17.50;57.20
60495;DHT22;46342;49.046;11.920;2023-05-10T08:24:12;17.50;57.20
60495;DHT22;46342;49.046;11.920;2023-05-10T08:26:38;17.60;57.10
60495;DHT22;46342;49.046;11.920;2023-05-10T08:29:04;17.60;57.00
60495;DHT22;46342;49.046;11.920;2023-05-10T08:31:29;17.60;56.90
60495;DHT22;46342;49.046;11.920;2023-05-10T08:33:55;17.60;56.60
60495;DHT22;46342;49.046;11.920;2023-05-10T08:36:21;17.60;56.40
60495;DHT22;46342;49.046;11.920;2023-05-10T08:38:52;17.70;56.50
60495;DHT22;46342;49.046;11.920;2023-05-10T08:41:22;17.70;56.70
60495;DHT22;46342;49.046;11.920;2023-05-10T08:43:50;17.70;56.60
60495;DHT22;46342;49.046;11.920;2023-05-10T08:46:17;17.70;56.40
60495;DHT22;46342;49.046;11.920;2023-05-10T08:48:44;17.60;56.30
60495;DHT22;46342;49.046;11.920;2023-05-10T08:51:13;17.60;56.30
60495;DHT22;46342;49.046;11.920;2023-05-10T08:53:39;17.60;56.50
60495;DHT22;46342;49.046;11.920;2023-05-10T08:56:05;17.60;56.30
60495;DHT22;46342;49.046;11.920;2023-05-10T08:58:31;17.60;56.10
60495;DHT22;46342;49.046;11.920;2023-05-10T09:00:58;17.60;56.30
60495;DHT22;46342;49.046;11.920;2023-05-10T09:03:24;17.60;56.40
60495;DHT22;46342;49.046;11.920;2023-05-10T09:05:49;17.60;56.40
60495;DHT22;46342;49.046;11.920;2023-05-10T09:08:15;17.60;56.40
60495;DHT22;46342;49.046;11.920;2023-05-10T09:10:45;17.60;56.40
60495;DHT22;46342;49.046;11.920;2023-05-10T09:13:14;17.60;56.30
60495;DHT22;46342;49.046;11.920;2023-05-10T09:15:40;17.60;56.60
60495;DHT22;46342;49.046;11.920;2023-05-10T09:18:06;17.70;57.20
60495;DHT22;46342;49.046;11.920;2023-05-10T09:20:31;17.70;56.50
60495;DHT22;46342;49.046;11.920;2023-05-10T09:22:57;17.70;56.70
60495;DHT22;46342;49.046;11.920;2023-05-10T09:25:22;17.70;56.80
60495;DHT22;46342;49.046;11.920;2023-05-10T09:27:48;17.80;56.80
60495;DHT22;46342;49.046;11.920;2023-05-10T09:30:23;17.80;56.80
60495;DHT22;46342;49.046;11.920;2023-05-10T09:32:50;17.90;57.60
60495;DHT22;46342;49.046;11.920;2023-05-10T09:35:18;17.90;56.80
60495;DHT22;46342;49.046;11.920;2023-05-10T09:37:46;17.90;56.60
60495;DHT22;46342;49.046;11.920;2023-05-10T09:40:20;18.00;56.70
60495;DHT22;46342;49.046;11.920;2023-05-10T09:45:25;18.00;56.70
60495;DHT22;46342;49.046;11.920;2023-05-10T09:47:51;18.00;56.40
60495;DHT22;46342;49.046;11.920;2023-05-10T09:50:18;18.10;56.50
60495;DHT22;46342;49.046;11.920;2023-05-10T09:55:22;18.20;56.90
60495;DHT22;46342;49.046;11.920;2023-05-10T09:57:49;18.20;56.90
60495;DHT22;46342;49.046;11.920;2023-05-10T10:00:18;18.30;57.00
60495;DHT22;46342;49.046;11.920;2023-05-10T10:02:58;18.40;57.00
60495;DHT22;46342;49.046;11.920;2023-05-10T10:05:34;18.50;56.90
60495;DHT22;46342;49.046;11.920;2023-05-10T10:08:03;18.60;57.30
60495;DHT22;46342;49.046;11.920;2023-05-10T10:10:31;18.70;57.10
60495;DHT22;46342;49.046;11.920;2023-05-10T10:12:57;18.80;57.30
60495;DHT22;46342;49.046;11.920;2023-05-10T10:15:23;19.00;57.20
60495;DHT22;46342;49.046;11.920;2023-05-10T10:17:51;19.10;57.20
60495;DHT22;46342;49.046;11.920;2023-05-10T10:20:17;19.30;57.30
60495;DHT22;46342;49.046;11.920;2023-05-10T10:22:43;19.40;57.00
60495;DHT22;46342;49.046;11.920;2023-05-10T10:25:13;19.50;56.60
60495;DHT22;46342;49.046;11.920;2023-05-10T10:35:33;20.00;55.80
60495;DHT22;46342;49.046;11.920;2023-05-10T10:37:59;20.00;55.10
60495;DHT22;46342;49.046;11.920;2023-05-10T10:40:27;20.10;55.00
60495;DHT22;46342;49.046;11.920;2023-05-10T10:42:54;20.10;55.00
60495;DHT22;46342;49.046;11.920;2023-05-10T10:45:21;20.20;55.20
60495;DHT22;46342;49.046;11.920;2023-05-10T10:47:47;20.30;55.50
60495;DHT22;46342;49.046;11.920;2023-05-10T10:50:12;20.40;55.30
60495;DHT22;46342;49.046;11.920;2023-05-10T10:52:39;20.50;55.20
60495;DHT22;46342;49.046;11.920;2023-05-10T10:55:13;20.60;55.00
60495;DHT22;46342;49.046;11.920;2023-05-10T10:58:00;20.70;54.60
60495;DHT22;46342;49.046;11.920;2023-05-10T11:02:54;20.90;54.40
60495;DHT22;46342;49.046;11.920;2023-05-10T11:05:37;20.90;54.00
60495;DHT22;46342;49.046;11.920;2023-05-10T11:08:14;21.00;53.90
60495;DHT22;46342;49.046;11.920;2023-05-10T11:13:28;21.10;53.30
60495;DHT22;46342;49.046;11.920;2023-05-10T11:15:54;21.10;53.20
60495;DHT22;46342;49.046;11.920;2023-05-10T11:18:31;21.20;53.50
60495;DHT22;46342;49.046;11.920;2023-05-10T11:20:59;21.30;53.20
60495;DHT22;46342;49.046;11.920;2023-05-10T11:23:52;21.30;53.10
60495;DHT22;46342;49.046;11.920;2023-05-10T11:26:16;21.40;52.70
60495;DHT22;46342;49.046;11.920;2023-05-10T11:28:46;21.40;53.00
60495;DHT22;46342;49.046;11.920;2023-05-10T11:31:16;21.50;52.90
60495;DHT22;46342;49.046;11.920;2023-05-10T11:33:51;21.50;52.70
60495;DHT22;46342;49.046;11.920;2023-05-10T11:36:19;21.50;52.10
60495;DHT22;46342;49.046;11.920;2023-05-10T11:38:45;21.60;52.30
60495;DHT22;46342;49.046;11.920;2023-05-10T11:41:12;21.60;52.30
60495;DHT22;46342;49.046;11.920;2023-05-10T11:43:41;21.60;52.20
60495;DHT22;46342;49.046;11.920;2023-05-10T11:46:09;21.70;52.00
60495;DHT22;46342;49.046;11.920;2023-05-10T11:48:37;21.70;52.10
60495;DHT22;46342;49.046;11.920;2023-05-10T11:51:03;21.70;52.10
60495;DHT22;46342;49.046;11.920;2023-05-10T11:53:31;21.70;51.90
60495;DHT22;46342;49.046;11.920;2023-05-10T11:56:03;21.80;51.80
60495;DHT22;46342;49.046;11.920;2023-05-10T11:58:29;21.80;51.50
60495;DHT22;46342;49.046;11.920;2023-05-10T12:00:55;21.90;52.00
60495;DHT22;46342;49.046;11.920;2023-05-10T12:03:21;21.90;52.00
60495;DHT22;46342;49.046;11.920;2023-05-10T12:05:47;22.00;52.00
60495;DHT22;46342;49.046;11.920;2023-05-10T12:08:14;22.10;51.80
60495;DHT22;46342;49.046;11.920;2023-05-10T12:10:40;22.20;51.80
60495;DHT22;46342;49.046;11.920;2023-05-10T12:13:05;22.30;51.80
60495;DHT22;46342;49.046;11.920;2023-05-10T12:15:35;22.40;51.70
60495;DHT22;46342;49.046;11.920;2023-05-10T12:18:04;22.50;51.50
60495;DHT22;46342;49.046;11.920;2023-05-10T12:20:31;22.50;51.20
60495;DHT22;46342;49.046;11.920;2023-05-10T12:22:57;22.50;50.80
60495;DHT22;46342;49.046;11.920;2023-05-10T12:25:30;22.50;50.50
60495;DHT22;46342;49.046;11.920;2023-05-10T12:27:57;22.50;50.50
60495;DHT22;46342;49.046;11.920;2023-05-10T12:30:28;22.40;50.50
60495;DHT22;46342;49.046;11.920;2023-05-10T12:33:01;22.40;50.70
60495;DHT22;46342;49.046;11.920;2023-05-10T12:35:30;22.30;50.80
60495;DHT22;46342;49.046;11.920;2023-05-10T12:37:56;22.20;50.80
60495;DHT22;46342;49.046;11.920;2023-05-10T12:40:22;22.10;50.80
60495;DHT22;46342;49.046;11.920;2023-05-10T12:42:47;22.00;50.90
60495;DHT22;46342;49.046;11.920;2023-05-10T12:45:14;21.90;50.90
60495;DHT22;46342;49.046;11.920;2023-05-10T12:47:39;21.80;51.10
60495;DHT22;46342;49.046;11.920;2023-05-10T12:50:06;21.70;51.10
60495;DHT22;46342;49.046;11.920;2023-05-10T12:52:31;21.50;51.30
60495;DHT22;46342;49.046;11.920;2023-05-10T12:54:58;21.40;51.30
60495;DHT22;46342;49.046;11.920;2023-05-10T12:57:24;21.40;51.60
60495;DHT22;46342;49.046;11.920;2023-05-10T12:59:50;21.30;52.30
60495;DHT22;46342;49.046;11.920;2023-05-10T13:02:16;21.20;51.90
60495;DHT22;46342;49.046;11.920;2023-05-10T13:04:44;21.10;51.80
60495;DHT22;46342;49.046;11.920;2023-05-10T13:07:10;21.00;51.90
60495;DHT22;46342;49.046;11.920;2023-05-10T13:09:35;21.00;52.20
60495;DHT22;46342;49.046;11.920;2023-05-10T13:12:01;20.90;52.30
60495;DHT22;46342;49.046;11.920;2023-05-10T13:14:27;20.90;52.50
60495;DHT22;46342;49.046;11.920;2023-05-10T13:16:52;20.90;52.80
60495;DHT22;46342;49.046;11.920;2023-05-10T13:19:19;20.80;52.90
60495;DHT22;46342;49.046;11.920;2023-05-10T13:21:44;20.80;52.90
60495;DHT22;46342;49.046;11.920;2023-05-10T13:24:11;20.80;52.80
60495;DHT22;46342;49.046;11.920;2023-05-10T13:26:39;20.80;53.00
60495;DHT22;46342;49.046;11.920;2023-05-10T13:29:05;20.70;52.90
60495;DHT22;46342;49.046;11.920;2023-05-10T13:31:30;20.80;53.20
60495;DHT22;46342;49.046;11.920;2023-05-10T13:33:56;20.70;53.10
60495;DHT22;46342;49.046;11.920;2023-05-10T13:36:22;20.70;52.80
60495;DHT22;46342;49.046;11.920;2023-05-10T13:38:48;20.70;52.70
60495;DHT22;46342;49.046;11.920;2023-05-10T13:41:13;20.70;52.80
60495;DHT22;46342;49.046;11.920;2023-05-10T13:43:39;20.70;53.00
60495;DHT22;46342;49.046;11.920;2023-05-10T13:46:05;20.70;53.00
60495;DHT22;46342;49.046;11.920;2023-05-10T13:48:31;20.70;53.00
60495;DHT22;46342;49.046;11.920;2023-05-10T13:50:56;20.60;53.10
60495;DHT22;46342;49.046;11.920;2023-05-10T13:53:22;20.60;53.00
60495;DHT22;46342;49.046;11.920;2023-05-10T13:55:48;20.60;52.90
60495;DHT22;46342;49.046;11.920;2023-05-10T13:58:13;20.60;52.80
60495;DHT22;46342;49.046;11.920;2023-05-10T14:00:39;20.60;52.70
60495;DHT22;46342;49.046;11.920;2023-05-10T14:03:05;20.50;52.70
60495;DHT22;46342;49.046;11.920;2023-05-10T14:05:31;20.50;52.70
60495;DHT22;46342;49.046;11.920;2023-05-10T14:07:57;20.50;53.00
60495;DHT22;46342;49.046;11.920;2023-05-10T14:10:22;20.50;53.20
60495;DHT22;46342;49.046;11.920;2023-05-10T14:12:49;20.50;53.40
60495;DHT22;46342;49.046;11.920;2023-05-10T14:15:15;20.50;53.30
60495;DHT22;46342;49.046;11.920;2023-05-10T14:17:40;20.50;53.20
60495;DHT22;46342;49.046;11.920;2023-05-10T14:20:06;20.50;53.20
60495;DHT22;46342;49.046;11.920;2023-05-10T14:22:32;20.50;53.30
60495;DHT22;46342;49.046;11.920;2023-05-10T14:24:58;20.40;53.40
60495;DHT22;46342;49.046;11.920;2023-05-10T14:27:23;20.50;53.70
60495;DHT22;46342;49.046;11.920;2023-05-10T14:29:49;20.50;53.80
60495;DHT22;46342;49.046;11.920;2023-05-10T14:32:15;20.40;53.70
60495;DHT22;46342;49.046;11.920;2023-05-10T14:34:40;20.40;53.70
60495;DHT22;46342;49.046;11.920;2023-05-10T14:37:06;20.40;53.60
60495;DHT22;46342;49.046;11.920;2023-05-10T14:39:32;20.40;53.60
60495;DHT22;46342;49.046;11.920;2023-05-10T14:41:58;20.40;53.60
60495;DHT22;46342;49.046;11.920;2023-05-10T14:44:24;20.30;53.70
60495;DHT22;46342;49.046;11.920;2023-05-10T14:46:49;20.30;53.70
60495;DHT22;46342;49.046;11.920;2023-05-10T14:49:15;20.30;53.80
60495;DHT22;46342;49.046;11.920;2023-05-10T14:51:40;20.20;53.60
60495;DHT22;46342;49.046;11.920;2023-05-10T14:54:06;20.20;54.20
60495;DHT22;46342;49.046;11.920;2023-05-10T14:56:32;20.10;53.50
60495;DHT22;46342;49.046;11.920;2023-05-10T14:58:57;20.10;53.50
60495;DHT22;46342;49.046;11.920;2023-05-10T15:01:24;20.00;53.50
60495;DHT22;46342;49.046;11.920;2023-05-10T15:03:50;20.00;53.70
60495;DHT22;46342;49.046;11.920;2023-05-10T15:06:16;19.90;53.80
60495;DHT22;46342;49.046;11.920;2023-05-10T15:08:41;19.80;53.90
60495;DHT22;46342;49.046;11.920;2023-05-10T15:11:07;19.70;54.00
60495;DHT22;46342;49.046;11.920;2023-05-10T15:13:33;19.70;54.10
60495;DHT22;46342;49.046;11.920;2023-05-10T15:15:58;19.60;54.10
60495;DHT22;46342;49.046;11.920;2023-05-10T15:18:24;19.60;54.30
60495;DHT22;46342;49.046;11.920;2023-05-10T15:20:49;19.50;54.20
60495;DHT22;46342;49.046;11.920;2023-05-10T15:23:15;19.40;54.00
60495;DHT22;46342;49.046;11.920;2023-05-10T15:25:41;19.30;54.60
60495;DHT22;46342;49.046;11.920;2023-05-10T15:28:06;19.20;54.00
60495;DHT22;46342;49.046;11.920;2023-05-10T15:30:32;19.10;53.90
60495;DHT22;46342;49.046;11.920;2023-05-10T15:32:57;19.00;53.90
60495;DHT22;46342;49.046;11.920;2023-05-10T15:35:26;18.90;54.10
60495;DHT22;46342;49.046;11.920;2023-05-10T15:37:51;18.80;54.10
60495;DHT22;46342;49.046;11.920;2023-05-10T15:40:17;18.70;54.20
60495;DHT22;46342;49.046;11.920;2023-05-10T15:42:43;18.60;54.20
60495;DHT22;46342;49.046;11.920;2023-05-10T15:45:09;18.60;54.30
60495;DHT22;46342;49.046;11.920;2023-05-10T15:47:35;18.50;54.40
60495;DHT22;46342;49.046;11.920;2023-05-10T15:50:01;18.40;54.30
60495;DHT22;46342;49.046;11.920;2023-05-10T15:52:27;18.30;54.30
60495;DHT22;46342;49.046;11.920;2023-05-10T15:54:52;18.30;54.50